Time;durP1;ratioP1;P1;durP2;ratioP2;P2;SDS_P1;SDS_P2;PMS_P1;PMS_P2;Temp;Humidity;BMP_temperature;BMP_pressure;BME280_temperature;BME280_humidity;BME280_pressure;Samples;Min_cycle;Max_cycle;Signal;HPM_P1;HPM_P2
2022/03/04 00:01:46;;;;;;;27.67;12.90;;;;;0.10;96346.00;;;;8425764;28;20284;-73
2022/03/04 00:06:20;;;;;;;30.73;13.47;;;;;0.10;96356.00;;;;8425667;28;20236;-74
2022/03/04 00:10:23;;;;;;;30.90;13.30;;;;;0.00;96351.00;;;;8425259;28;20630;-73
2022/03/04 00:19:25;;;;;;;31.23;13.40;;;;;-0.10;96358.00;;;;8430848;28;20306;-73
2022/03/04 00:23:28;;;;;;;34.10;12.50;;;;;-0.20;96355.00;;;;8431871;28;20283;-72
2022/03/04 00:27:32;;;;;;;28.57;12.77;;;;;-0.20;96351.00;;;;8430831;28;20226;-72
2022/03/04 00:31:36;;;;;;;33.33;13.43;;;;;-0.40;96347.00;;;;8431758;28;20223;-72
2022/03/04 00:36:11;;;;;;;32.27;13.57;;;;;-0.50;96357.00;;;;8431247;28;20564;-72
2022/03/04 00:40:15;;;;;;;32.80;13.03;;;;;-0.60;96359.00;;;;8430785;28;20275;-72
2022/03/04 00:44:48;;;;;;;34.23;15.03;;;;;-0.80;96360.00;;;;8431149;28;20288;-72
2022/03/04 00:48:52;;;;;;;35.50;14.03;;;;;-0.70;96360.00;;;;8430893;28;20218;-72
2022/03/04 00:53:27;;;;;;;32.57;13.07;;;;;-0.60;96366.00;;;;8430336;28;20220;-71
2022/03/04 00:57:30;;;;;;;34.00;13.50;;;;;-0.40;96371.00;;;;8430159;28;20296;-72
2022/03/04 01:02:07;;;;;;;34.50;13.80;;;;;-0.30;96365.00;;;;8430351;28;20273;-72
2022/03/04 01:06:10;;;;;;;35.23;13.93;;;;;-0.30;96357.00;;;;8429689;28;20222;-72
2022/03/04 01:10:48;;;;;;;36.13;15.43;;;;;-0.30;96353.00;;;;8429876;28;20242;-71
2022/03/04 01:14:53;;;;;;;32.83;14.17;;;;;-0.40;96348.00;;;;8430224;28;20686;-71
2022/03/04 01:19:27;;;;;;;36.63;14.80;;;;;-0.60;96337.00;;;;8429542;28;20233;-71
2022/03/04 01:23:30;;;;;;;35.03;13.43;;;;;-0.80;96329.00;;;;8429233;28;20227;-73
2022/03/04 01:28:09;;;;;;;39.90;15.00;;;;;-1.00;96326.00;;;;8428957;28;20283;-71
2022/03/04 01:32:42;;;;;;;38.03;15.30;;;;;-1.00;96323.00;;;;8429375;28;20640;-73
2022/03/04 01:36:45;;;;;;;33.30;14.57;;;;;-0.80;96316.00;;;;8428749;28;20211;-73
2022/03/04 01:41:22;;;;;;;38.50;15.13;;;;;-0.80;96315.00;;;;8429674;28;20226;-72
2022/03/04 01:45:27;;;;;;;42.20;16.47;;;;;-0.70;96308.00;;;;8428490;28;20272;-73
2022/03/04 01:49:29;;;;;;;43.17;17.80;;;;;-0.60;96308.00;;;;8428753;28;20233;-73
2022/03/04 01:53:33;;;;;;;41.17;14.83;;;;;-0.60;96318.00;;;;8428899;28;20729;-73
2022/03/04 01:57:38;;;;;;;43.60;15.93;;;;;-0.60;96302.00;;;;8428382;28;20701;-73
2022/03/04 02:01:43;;;;;;;32.50;14.73;;;;;-0.50;96306.00;;;;8428545;28;20239;-73
2022/03/04 02:05:46;;;;;;;37.50;15.53;;;;;-0.60;96309.00;;;;8429052;28;20272;-74
2022/03/04 02:09:49;;;;;;;36.43;15.70;;;;;-0.60;96306.00;;;;8428517;28;20721;-74
2022/03/04 02:13:52;;;;;;;36.97;14.37;;;;;-0.60;96307.00;;;;8428304;28;20219;-74
2022/03/04 02:17:57;;;;;;;32.17;14.53;;;;;-0.60;96293.00;;;;8429050;28;20593;-75
2022/03/04 02:22:32;;;;;;;35.13;15.10;;;;;-0.60;96310.00;;;;8427747;28;20706;-73
2022/03/04 02:26:35;;;;;;;35.37;14.70;;;;;-0.60;96309.00;;;;8427054;28;20288;-73
2022/03/04 02:31:13;;;;;;;37.97;16.27;;;;;-0.70;96294.00;;;;8428856;28;20272;-73
2022/03/04 02:35:16;;;;;;;36.63;13.33;;;;;-0.70;96303.00;;;;8427264;28;20223;-74
2022/03/04 02:39:55;;;;;;;36.97;15.30;;;;;-0.80;96298.00;;;;8426752;28;20219;-74
2022/03/04 02:44:32;;;;;;;36.77;14.50;;;;;-0.80;96307.00;;;;8427253;28;20262;-73
2022/03/04 02:48:35;;;;;;;40.90;15.83;;;;;-0.80;96302.00;;;;8427074;28;20243;-74
2022/03/04 02:53:12;;;;;;;33.33;13.70;;;;;-0.80;96303.00;;;;8426794;28;20302;-74
2022/03/04 02:57:17;;;;;;;38.33;16.87;;;;;-0.80;96300.00;;;;8427344;28;20211;-71
2022/03/04 03:01:20;;;;;;;38.60;14.97;;;;;-0.80;96314.00;;;;8454406;22;20235;-72
2022/03/04 03:05:24;;;;;;;43.57;16.77;;;;;-0.80;96311.00;;;;8404491;28;20238;-72
2022/03/04 03:09:27;;;;;;;43.40;16.60;;;;;-0.80;96317.00;;;;8413331;28;20227;-72
2022/03/04 03:13:31;;;;;;;41.00;15.07;;;;;-0.80;96311.00;;;;8407563;28;20228;-72
2022/03/04 03:17:34;;;;;;;40.23;15.33;;;;;-0.90;96312.00;;;;8411116;28;20219;-72
2022/03/04 03:21:37;;;;;;;38.97;15.57;;;;;-0.90;96316.00;;;;8402169;28;20231;-72
2022/03/04 03:25:41;;;;;;;40.37;16.70;;;;;-0.90;96322.00;;;;8403320;28;20246;-72
2022/03/04 03:29:46;;;;;;;42.30;16.77;;;;;-0.90;96313.00;;;;8412906;28;20227;-73
2022/03/04 03:33:49;;;;;;;41.27;18.13;;;;;-0.90;96325.00;;;;8411151;28;20366;-72
2022/03/04 03:37:52;;;;;;;41.10;16.93;;;;;-1.00;96322.00;;;;8395682;28;20216;-73
2022/03/04 03:41:55;;;;;;;44.33;17.37;;;;;-0.90;96335.00;;;;8410329;28;20231;-72
2022/03/04 03:45:59;;;;;;;40.80;16.07;;;;;-1.00;96339.00;;;;8401073;28;20970;-73
2022/03/04 03:50:03;;;;;;;42.30;16.30;;;;;-1.00;96342.00;;;;8406576;28;20325;-73
2022/03/04 03:54:06;;;;;;;45.33;17.07;;;;;-1.10;96335.00;;;;8409566;28;20219;-72
2022/03/04 03:58:09;;;;;;;46.97;17.43;;;;;-1.10;96331.00;;;;8402776;28;20276;-72
2022/03/04 04:02:13;;;;;;;48.03;17.40;;;;;-1.10;96329.00;;;;8406303;28;20219;-72
2022/03/04 04:06:16;;;;;;;39.10;17.20;;;;;-1.10;96344.00;;;;8372409;28;20236;-72
2022/03/04 04:10:20;;;;;;;44.97;17.63;;;;;-1.20;96341.00;;;;8373234;28;20302;-72
2022/03/04 04:14:28;;;;;;;53.67;20.10;;;;;-1.20;96348.00;;;;8369625;28;20269;-71
2022/03/04 04:18:33;;;;;;;49.90;19.17;;;;;-1.20;96350.00;;;;8376465;28;20364;-70
2022/03/04 04:22:37;;;;;;;48.53;18.73;;;;;-1.20;96349.00;;;;8377709;28;20223;-72
2022/03/04 04:26:40;;;;;;;48.53;18.10;;;;;-1.40;96350.00;;;;8371724;28;20228;-73
2022/03/04 04:30:43;;;;;;;49.03;18.67;;;;;-1.40;96354.00;;;;8376044;28;20585;-71
2022/03/04 04:34:47;;;;;;;40.20;17.73;;;;;-1.60;96347.00;;;;8374355;28;20230;-71
2022/03/04 04:38:50;;;;;;;47.83;18.43;;;;;-1.70;96349.00;;;;8373076;28;20265;-71
2022/03/04 04:42:54;;;;;;;50.47;19.03;;;;;-1.80;96356.00;;;;8370952;28;20258;-71
2022/03/04 04:46:57;;;;;;;56.20;20.80;;;;;-1.80;96355.00;;;;8380190;28;20227;-71
2022/03/04 04:51:02;;;;;;;50.30;17.70;;;;;-1.80;96350.00;;;;8368859;28;20219;-71
2022/03/04 04:55:06;;;;;;;51.53;19.00;;;;;-1.80;96360.00;;;;8372689;28;20696;-72
2022/03/04 04:59:10;;;;;;;50.63;18.53;;;;;-1.80;96361.00;;;;8379952;28;20278;-72
2022/03/04 05:03:13;;;;;;;47.80;18.03;;;;;-1.70;96370.00;;;;8376948;28;20398;-72
2022/03/04 05:07:17;;;;;;;48.23;17.83;;;;;-1.80;96364.00;;;;8375514;28;20242;-72
2022/03/04 05:11:20;;;;;;;51.80;19.50;;;;;-1.80;96370.00;;;;8379743;28;20228;-72
2022/03/04 05:15:23;;;;;;;57.57;20.83;;;;;-1.80;96375.00;;;;8371718;28;20658;-71
2022/03/04 05:19:27;;;;;;;49.63;18.53;;;;;-1.90;96380.00;;;;8366049;28;20747;-71
2022/03/04 05:28:00;;;;;;;45.13;17.37;;;;;-2.10;96381.00;;;;8344196;28;20288;-71
2022/03/04 05:32:04;;;;;;;49.33;18.47;;;;;-2.20;96385.00;;;;8369319;28;20246;-71
2022/03/04 05:36:06;;;;;;;54.90;20.00;;;;;-2.30;96374.00;;;;8373569;28;20292;-72
2022/03/04 05:40:12;;;;;;;47.83;17.67;;;;;-2.40;96380.00;;;;8381097;28;20293;-71
2022/03/04 05:44:15;;;;;;;54.87;19.93;;;;;-2.50;96384.00;;;;8379059;28;20588;-70
2022/03/04 05:48:18;;;;;;;57.87;20.90;;;;;-2.60;96386.00;;;;8377462;28;20236;-69
2022/03/04 05:52:21;;;;;;;58.83;19.60;;;;;-2.60;96389.00;;;;8376136;28;20685;-70
2022/03/04 05:56:25;;;;;;;59.33;19.00;;;;;-2.70;96389.00;;;;8380803;28;20313;-70
2022/03/04 06:00:29;;;;;;;58.83;20.50;;;;;-2.70;96389.00;;;;8378746;28;20627;-70
2022/03/04 06:04:32;;;;;;;57.60;19.13;;;;;-2.70;96397.00;;;;8375743;28;20251;-70
2022/03/04 06:08:36;;;;;;;58.33;21.50;;;;;-2.80;96401.00;;;;8375598;28;20223;-69
2022/03/04 06:12:40;;;;;;;71.47;21.93;;;;;-2.80;96399.00;;;;8372712;28;20308;-70
2022/03/04 06:16:43;;;;;;;59.10;19.90;;;;;-2.80;96403.00;;;;8374029;28;20809;-71
2022/03/04 06:20:46;;;;;;;69.07;21.97;;;;;-2.70;96418.00;;;;8369250;28;20228;-70
2022/03/04 06:24:50;;;;;;;70.33;21.97;;;;;-2.70;96412.00;;;;8372002;28;20709;-72
2022/03/04 06:28:54;;;;;;;55.73;20.00;;;;;-2.60;96412.00;;;;8378589;28;20243;-71
2022/03/04 06:37:15;;;;;;;60.77;20.47;;;;;-2.40;96423.00;;;;8365529;28;20650;-69
2022/03/04 06:41:18;;;;;;;55.43;18.93;;;;;-2.30;96430.00;;;;8367827;28;20239;-69
2022/03/04 06:45:22;;;;;;;63.10;22.17;;;;;-2.10;96431.00;;;;8377546;28;20232;-70
2022/03/04 06:49:25;;;;;;;65.13;21.33;;;;;-1.80;96431.00;;;;8370135;28;20671;-71
2022/03/04 06:53:28;;;;;;;42.73;15.07;;;;;-1.50;96436.00;;;;8376323;28;20227;-71
2022/03/04 06:57:31;;;;;;;44.10;14.77;;;;;-1.20;96437.00;;;;8370591;28;20224;-70
2022/03/04 07:01:36;;;;;;;57.63;20.23;;;;;-1.10;96446.00;;;;8370630;28;20664;-70
2022/03/04 07:05:41;;;;;;;54.53;18.80;;;;;-0.90;96440.00;;;;8365630;28;20332;-70
2022/03/04 07:09:44;;;;;;;57.93;19.83;;;;;-0.80;96451.00;;;;8373169;28;20292;-71
2022/03/04 07:13:47;;;;;;;59.60;18.50;;;;;-0.60;96449.00;;;;8381470;28;20231;-71
2022/03/04 07:17:51;;;;;;;39.70;15.00;;;;;-0.50;96452.00;;;;8377997;28;20277;-73
2022/03/04 07:21:54;;;;;;;43.40;16.80;;;;;-0.30;96453.00;;;;8369551;28;20226;-74
2022/03/04 07:25:57;;;;;;;42.10;15.77;;;;;-0.20;96449.00;;;;8383456;28;20215;-72
2022/03/04 07:30:00;;;;;;;50.47;16.20;;;;;0.00;96456.00;;;;8374033;28;20269;-71
2022/03/04 07:34:05;;;;;;;54.43;18.73;;;;;0.10;96460.00;;;;8386780;28;20232;-73
2022/03/04 07:38:09;;;;;;;32.47;13.03;;;;;0.20;96464.00;;;;8381715;28;20548;-71
2022/03/04 07:42:17;;;;;;;43.77;15.13;;;;;0.30;96468.00;;;;8379922;28;20255;-71
2022/03/04 07:46:21;;;;;;;54.23;19.40;;;;;0.40;96464.00;;;;8381957;28;20379;-72
2022/03/04 07:50:26;;;;;;;45.07;16.20;;;;;0.50;96467.00;;;;8381276;28;20294;-72
2022/03/04 07:54:29;;;;;;;44.00;16.07;;;;;0.60;96472.00;;;;8384372;28;20228;-73
2022/03/04 07:58:32;;;;;;;39.77;13.40;;;;;0.80;96470.00;;;;8383360;28;20239;-71
2022/03/04 08:02:36;;;;;;;37.37;14.67;;;;;0.80;96475.00;;;;8377160;28;20262;-71
2022/03/04 08:06:41;;;;;;;38.97;14.77;;;;;1.00;96465.00;;;;8369622;28;20674;-72
2022/03/04 08:10:44;;;;;;;38.23;14.67;;;;;1.10;96471.00;;;;8372969;28;20273;-73
2022/03/04 08:14:47;;;;;;;46.20;18.93;;;;;1.20;96459.00;;;;8367900;28;20348;-72
2022/03/04 08:18:51;;;;;;;41.10;16.03;;;;;1.40;96454.00;;;;8365999;28;20232;-73
2022/03/04 08:22:56;;;;;;;51.57;19.60;;;;;1.50;96458.00;;;;8376579;28;20228;-72
2022/03/04 08:26:59;;;;;;;42.63;15.20;;;;;1.70;96472.00;;;;8379891;28;20236;-71
2022/03/04 08:31:10;;;;;;;52.77;17.67;;;;;1.80;96469.00;;;;8385987;28;20281;-72
2022/03/04 08:35:14;;;;;;;35.60;14.70;;;;;2.00;96487.00;;;;8369985;28;20263;-72
2022/03/04 08:39:18;;;;;;;47.03;16.80;;;;;2.10;96480.00;;;;8378852;28;20224;-71
2022/03/04 08:43:22;;;;;;;40.93;15.83;;;;;2.10;96490.00;;;;8371972;28;20229;-72
2022/03/04 08:47:25;;;;;;;31.83;13.00;;;;;2.20;96485.00;;;;8373332;28;20282;-74
2022/03/04 08:51:28;;;;;;;40.07;15.97;;;;;2.10;96491.00;;;;8375605;28;20224;-71
2022/03/04 08:55:32;;;;;;;44.93;16.83;;;;;2.10;96490.00;;;;8373232;28;20266;-72
2022/03/04 08:59:36;;;;;;;48.30;17.20;;;;;2.30;96489.00;;;;8369579;28;20707;-71
2022/03/04 09:03:39;;;;;;;46.97;17.80;;;;;2.40;96496.00;;;;8366982;28;20228;-73
2022/03/04 09:07:43;;;;;;;45.70;14.73;;;;;2.50;96500.00;;;;8375663;28;20232;-73
2022/03/04 09:11:47;;;;;;;43.93;16.53;;;;;2.60;96500.00;;;;8379019;28;20221;-77
2022/03/04 09:15:50;;;;;;;46.17;17.10;;;;;2.80;96500.00;;;;8371998;28;20297;-78
2022/03/04 09:19:53;;;;;;;45.70;16.27;;;;;3.00;96501.00;;;;8372098;28;20271;-77
2022/03/04 09:23:59;;;;;;;43.83;16.77;;;;;3.10;96499.00;;;;8368747;28;20236;-76
2022/03/04 09:28:05;;;;;;;41.43;16.67;;;;;3.30;96500.00;;;;8373754;28;20287;-74
2022/03/04 09:32:08;;;;;;;50.07;17.57;;;;;3.40;96503.00;;;;8372860;28;20285;-71
2022/03/04 09:36:13;;;;;;;44.67;17.23;;;;;3.40;96500.00;;;;8369762;28;20251;-70
2022/03/04 09:40:16;;;;;;;38.53;16.03;;;;;3.60;96500.00;;;;8369324;28;20361;-71
2022/03/04 09:44:21;;;;;;;44.13;16.40;;;;;3.80;96501.00;;;;8369121;28;20709;-70
2022/03/04 09:48:24;;;;;;;41.80;15.23;;;;;4.10;96514.00;;;;8365923;28;20225;-71
2022/03/04 09:52:27;;;;;;;43.17;17.13;;;;;4.20;96506.00;;;;8366090;28;20235;-71
2022/03/04 09:56:30;;;;;;;39.70;15.33;;;;;4.60;96508.00;;;;8371266;28;20246;-71
2022/03/04 10:00:35;;;;;;;41.10;15.37;;;;;5.00;96506.00;;;;8370061;28;20230;-73
2022/03/04 10:04:38;;;;;;;42.47;16.40;;;;;5.20;96497.00;;;;8368572;28;20793;-72
2022/03/04 10:08:43;;;;;;;38.50;15.83;;;;;5.70;96504.00;;;;8368550;28;20226;-72
2022/03/04 10:12:51;;;;;;;37.37;15.50;;;;;6.00;96505.00;;;;8363368;28;20308;-74
2022/03/04 10:16:57;;;;;;;39.93;16.27;;;;;6.40;96497.00;;;;8366019;28;20232;-75
2022/03/04 10:21:00;;;;;;;38.47;15.30;;;;;6.70;96499.00;;;;8363930;28;20260;-74
2022/03/04 10:25:15;;;;;;;45.33;16.17;;;;;6.60;96504.00;;;;8368203;28;21024;-74
2022/03/04 10:29:20;;;;;;;36.20;14.67;;;;;6.50;96512.00;;;;8375054;28;20238;-80
2022/03/04 10:33:26;;;;;;;44.07;15.87;;;;;6.70;96527.00;;;;8368091;28;20289;-80
2022/03/04 10:37:42;;;;;;;39.40;14.60;;;;;6.90;96503.00;;;;8375496;28;20295;-76
2022/03/04 10:41:50;;;;;;;33.93;14.50;;;;;7.70;96514.00;;;;8361097;28;20300;-74
2022/03/04 10:46:01;;;;;;;35.83;15.23;;;;;8.20;96503.00;;;;8369955;28;20245;-75
2022/03/04 10:50:07;;;;;;;29.40;13.10;;;;;8.50;96500.00;;;;8370708;28;20317;-76
2022/03/04 10:54:12;;;;;;;26.33;11.80;;;;;8.80;96511.00;;;;8367797;28;20758;-76
2022/03/04 10:58:17;;;;;;;30.80;14.23;;;;;8.60;96503.00;;;;8368490;28;20236;-79
2022/03/04 11:02:42;;;;;;;29.57;12.47;;;;;8.00;96499.00;;;;8371372;28;20231;-78
2022/03/04 11:06:49;;;;;;;21.87;9.83;;;;;8.30;96504.00;;;;8376015;28;20311;-78
2022/03/04 11:10:55;;;;;;;24.37;11.17;;;;;8.50;96504.00;;;;8370352;28;20227;-77
2022/03/04 11:15:00;;;;;;;21.70;9.40;;;;;8.70;96488.00;;;;8373756;28;20231;-78
2022/03/04 11:19:03;;;;;;;23.23;9.80;;;;;8.70;96494.00;;;;8365233;28;20234;-78
2022/03/04 11:23:09;;;;;;;21.53;9.07;;;;;8.80;96494.00;;;;8382752;28;20239;-81
2022/03/04 11:27:16;;;;;;;22.97;9.73;;;;;9.20;96491.00;;;;8382309;28;20235;-78
2022/03/04 11:31:23;;;;;;;22.80;11.30;;;;;9.60;96500.00;;;;8380337;28;20269;-77
2022/03/04 11:35:58;;;;;;;22.30;10.03;;;;;9.80;96487.00;;;;8371375;28;20263;-78
2022/03/04 11:40:05;;;;;;;19.73;10.13;;;;;10.10;96490.00;;;;8368766;28;20227;-78
2022/03/04 11:44:17;;;;;;;27.07;12.07;;;;;10.20;96496.00;;;;8375299;28;20227;-76
2022/03/04 11:48:23;;;;;;;25.80;12.63;;;;;10.40;96490.00;;;;8377508;28;20225;-76
2022/03/04 11:52:29;;;;;;;32.20;13.82;;;;;10.10;96490.00;;;;8374939;28;20281;-75
2022/03/04 11:56:51;;;;;;;26.07;12.80;;;;;9.80;96489.00;;;;8382247;28;20864;-75
2022/03/04 12:00:53;;;;;;;26.23;12.50;;;;;9.10;96483.00;;;;8387298;28;20264;-75
2022/03/04 12:05:32;;;;;;;26.07;13.07;;;;;8.60;96480.00;;;;8378462;28;20731;-75
2022/03/04 12:09:35;;;;;;;26.27;11.90;;;;;8.30;96484.00;;;;8377066;28;20220;-76
2022/03/04 12:13:43;;;;;;;30.27;12.83;;;;;8.10;96484.00;;;;8384195;28;20612;-76
2022/03/04 12:17:58;;;;;;;27.13;12.03;;;;;8.20;96480.00;;;;8383162;28;20220;-76
2022/03/04 12:22:02;;;;;;;25.83;11.57;;;;;8.60;96472.00;;;;8383738;28;20236;-76
2022/03/04 12:26:12;;;;;;;24.00;11.07;;;;;8.80;96472.00;;;;8382850;28;20281;-77
2022/03/04 12:30:18;;;;;;;23.83;11.30;;;;;8.40;96472.00;;;;8391743;28;20250;-78
2022/03/04 12:34:23;;;;;;;24.00;10.57;;;;;8.10;96479.00;;;;8387978;28;20301;-78
2022/03/04 12:38:26;;;;;;;24.33;10.90;;;;;7.80;96468.00;;;;8383609;28;20216;-79
2022/03/04 12:42:29;;;;;;;23.50;10.10;;;;;7.50;96477.00;;;;8384547;28;20224;-83
2022/03/04 12:46:36;;;;;;;26.57;11.03;;;;;7.50;96467.00;;;;8384344;28;20251;-79
2022/03/04 12:50:39;;;;;;;20.83;10.20;;;;;7.40;96465.00;;;;8383927;28;20604;-80
2022/03/04 12:54:44;;;;;;;21.30;9.47;;;;;7.50;96473.00;;;;8384560;28;20243;-81
2022/03/04 12:58:49;;;;;;;21.50;8.57;;;;;7.30;96475.00;;;;8387903;28;20228;-82
2022/03/04 13:02:54;;;;;;;18.57;8.50;;;;;7.10;96462.00;;;;8379576;28;20938;-79
2022/03/04 13:06:58;;;;;;;16.67;8.43;;;;;6.80;96462.00;;;;8381931;28;20250;-79
2022/03/04 13:11:14;;;;;;;19.87;9.00;;;;;6.60;96470.00;;;;8381119;28;20741;-80
2022/03/04 13:15:17;;;;;;;17.37;8.60;;;;;6.50;96459.00;;;;8382673;28;20226;-78
2022/03/04 13:19:23;;;;;;;17.20;7.93;;;;;6.40;96458.00;;;;8377974;28;20563;-81
2022/03/04 13:23:28;;;;;;;15.97;7.47;;;;;6.30;96466.00;;;;8379980;28;20311;-79
2022/03/04 13:27:40;;;;;;;17.17;7.47;;;;;6.30;96462.00;;;;8375414;28;20230;-81
2022/03/04 13:31:43;;;;;;;18.50;7.80;;;;;6.20;96465.00;;;;8385568;28;20314;-80
2022/03/04 13:35:57;;;;;;;15.57;7.37;;;;;6.20;96465.00;;;;8389854;28;20805;-81
2022/03/04 13:40:02;;;;;;;14.67;6.67;;;;;6.40;96459.00;;;;8390818;28;20248;-81
2022/03/04 13:44:06;;;;;;;15.10;6.60;;;;;6.60;96455.00;;;;8382838;28;20288;-81
2022/03/04 13:48:09;;;;;;;10.60;6.00;;;;;6.90;96447.00;;;;8394030;28;20233;-82
2022/03/04 13:52:15;;;;;;;13.63;6.40;;;;;7.40;96445.00;;;;8381121;28;20239;-81
2022/03/04 13:56:18;;;;;;;16.67;6.53;;;;;7.90;96447.00;;;;8385918;28;20228;-82
2022/03/04 14:00:21;;;;;;;15.47;6.10;;;;;8.20;96440.00;;;;8380945;28;20677;-82
2022/03/04 14:04:25;;;;;;;11.57;6.37;;;;;8.50;96452.00;;;;8381114;28;20258;-82
2022/03/04 14:08:30;;;;;;;13.13;6.10;;;;;8.60;96451.00;;;;8381309;28;20578;-80
2022/03/04 14:12:33;;;;;;;10.60;5.90;;;;;8.70;96449.00;;;;8380169;28;20265;-81
2022/03/04 14:16:36;;;;;;;12.03;6.00;;;;;8.50;96455.00;;;;8381713;28;20223;-81
2022/03/04 14:20:41;;;;;;;13.93;5.77;;;;;7.90;96451.00;;;;8380440;28;20227;-80
2022/03/04 14:24:46;;;;;;;9.67;4.97;;;;;7.40;96449.00;;;;8377392;28;20683;-81
2022/03/04 14:33:09;;;;;;;14.50;6.27;;;;;6.80;96461.00;;;;8375686;28;20253;-80
2022/03/04 14:37:12;;;;;;;15.53;5.83;;;;;6.70;96464.00;;;;8371989;28;20234;-80
2022/03/04 14:41:17;;;;;;;16.60;7.30;;;;;6.50;96459.00;;;;8383840;28;20566;-80
2022/03/04 14:45:21;;;;;;;13.47;6.63;;;;;6.40;96465.00;;;;8383136;28;20227;-80
2022/03/04 14:49:24;;;;;;;12.63;6.80;;;;;6.30;96475.00;;;;8386655;28;20261;-80
2022/03/04 14:53:27;;;;;;;15.23;7.03;;;;;6.20;96483.00;;;;8387548;28;20237;-83
2022/03/04 14:57:32;;;;;;;16.00;6.83;;;;;6.10;96463.00;;;;8381205;28;20635;-83
2022/03/04 15:01:35;;;;;;;14.20;6.80;;;;;6.10;96483.00;;;;8383063;28;20306;-81
2022/03/04 15:05:38;;;;;;;14.50;7.00;;;;;6.10;96472.00;;;;8377228;28;20235;-80
2022/03/04 15:09:42;;;;;;;14.77;6.23;;;;;6.10;96476.00;;;;8380868;28;20284;-80
2022/03/04 15:14:07;;;;;;;18.77;7.07;;;;;6.10;96478.00;;;;8378437;28;20220;-79
2022/03/04 15:18:10;;;;;;;18.77;7.47;;;;;6.00;96484.00;;;;8381767;28;20218;-81
2022/03/04 15:22:13;;;;;;;12.60;6.27;;;;;6.00;96479.00;;;;8379058;28;20280;-80
2022/03/04 15:26:16;;;;;;;18.03;7.10;;;;;6.00;96488.00;;;;8379921;28;20238;-80
2022/03/04 15:30:21;;;;;;;22.63;7.87;;;;;5.90;96489.00;;;;8380575;28;20308;-78
2022/03/04 15:34:24;;;;;;;18.27;8.13;;;;;5.90;96485.00;;;;8373666;28;20514;-80
2022/03/04 15:38:27;;;;;;;16.90;7.57;;;;;5.80;96486.00;;;;8374646;28;20721;-80
2022/03/04 15:42:30;;;;;;;15.90;7.97;;;;;5.70;96494.00;;;;8379680;28;20264;-81
2022/03/04 15:46:34;;;;;;;18.67;8.30;;;;;5.50;96490.00;;;;8384923;28;20760;-81
2022/03/04 15:50:38;;;;;;;19.53;8.87;;;;;5.40;96496.00;;;;8388441;28;20318;-80
2022/03/04 15:54:40;;;;;;;19.03;9.47;;;;;5.30;96488.00;;;;8386269;28;20575;-81
2022/03/04 15:58:43;;;;;;;15.80;8.70;;;;;5.20;96496.00;;;;8387530;28;20300;-80
2022/03/04 16:02:50;;;;;;;13.23;7.33;;;;;5.10;96495.00;;;;8389644;28;20796;-79
2022/03/04 16:06:53;;;;;;;13.27;7.50;;;;;4.90;96496.00;;;;8381623;28;20740;-79
2022/03/04 16:10:56;;;;;;;15.97;8.10;;;;;4.80;96501.00;;;;8381683;28;20302;-80
2022/03/04 16:15:01;;;;;;;18.37;8.27;;;;;4.60;96498.00;;;;8377636;28;20223;-80
2022/03/04 16:19:05;;;;;;;17.67;7.40;;;;;4.50;96510.00;;;;8382605;28;20735;-80
2022/03/04 16:23:08;;;;;;;15.40;7.27;;;;;4.40;96509.00;;;;8382913;28;20226;-78
2022/03/04 16:27:11;;;;;;;17.73;8.00;;;;;4.20;96495.00;;;;8383043;28;20294;-78
2022/03/04 16:31:15;;;;;;;13.53;6.47;;;;;4.10;96504.00;;;;8382806;28;20230;-77
2022/03/04 16:35:24;;;;;;;17.77;8.57;;;;;4.00;96506.00;;;;8382542;28;20247;-78
2022/03/04 16:39:30;;;;;;;15.47;7.10;;;;;3.80;96506.00;;;;8375553;28;20244;-79
2022/03/04 16:43:33;;;;;;;11.27;5.33;;;;;3.80;96508.00;;;;8382202;28;20229;-80
2022/03/04 16:47:36;;;;;;;9.97;6.27;;;;;3.60;96504.00;;;;8376610;28;20231;-79
2022/03/04 16:51:41;;;;;;;11.10;5.40;;;;;3.50;96506.00;;;;8381541;28;20240;-79
2022/03/04 16:55:47;;;;;;;12.20;6.03;;;;;3.40;96502.00;;;;8384690;28;20254;-79
2022/03/04 16:59:50;;;;;;;13.00;6.93;;;;;3.30;96507.00;;;;8377557;28;20229;-79
2022/03/04 17:03:54;;;;;;;19.33;6.20;;;;;3.20;96511.00;;;;8380023;28;20233;-79
2022/03/04 17:07:58;;;;;;;10.93;5.93;;;;;3.10;96512.00;;;;8385225;28;20609;-79
2022/03/04 17:12:08;;;;;;;11.27;5.13;;;;;3.00;96510.00;;;;8382758;28;21660;-79
2022/03/04 17:16:12;;;;;;;12.33;5.90;;;;;2.90;96517.00;;;;8384289;28;20228;-79
2022/03/04 17:20:15;;;;;;;11.47;5.47;;;;;2.80;96519.00;;;;8385254;28;20643;-79
2022/03/04 17:24:20;;;;;;;11.23;6.20;;;;;2.70;96521.00;;;;8382321;28;20226;-79
2022/03/04 17:28:23;;;;;;;17.47;9.73;;;;;2.70;96518.00;;;;8392046;28;20746;-80
2022/03/04 17:32:26;;;;;;;16.17;7.60;;;;;2.60;96525.00;;;;8379871;28;20289;-80
2022/03/04 17:36:30;;;;;;;10.00;5.90;;;;;2.50;96512.00;;;;8384963;28;20248;-79
2022/03/04 17:40:34;;;;;;;8.50;5.13;;;;;2.40;96525.00;;;;8381230;28;20289;-78
2022/03/04 17:44:39;;;;;;;11.97;5.90;;;;;2.40;96524.00;;;;8385025;28;20220;-77
2022/03/04 17:48:43;;;;;;;8.73;4.77;;;;;2.30;96518.00;;;;8381964;28;20269;-78
2022/03/04 17:52:46;;;;;;;10.70;5.30;;;;;2.20;96523.00;;;;8380620;28;20292;-78
2022/03/04 17:56:50;;;;;;;10.27;5.40;;;;;2.20;96528.00;;;;8386399;28;20295;-79
2022/03/04 18:00:53;;;;;;;10.30;5.60;;;;;2.20;96532.00;;;;8381042;28;20285;-78
2022/03/04 18:04:56;;;;;;;13.20;6.17;;;;;2.10;96538.00;;;;8383996;28;20866;-77
2022/03/04 18:09:00;;;;;;;14.80;6.27;;;;;2.00;96541.00;;;;8376847;28;20251;-76
2022/03/04 18:13:04;;;;;;;12.63;6.10;;;;;1.90;96540.00;;;;8380655;28;20220;-76
2022/03/04 18:17:09;;;;;;;13.00;6.60;;;;;1.80;96547.00;;;;8377960;28;20229;-76
2022/03/04 18:21:15;;;;;;;12.20;6.27;;;;;1.70;96545.00;;;;8377337;28;20225;-77
2022/03/04 18:25:18;;;;;;;14.87;6.40;;;;;1.50;96550.00;;;;8380441;28;20270;-76
2022/03/04 18:29:23;;;;;;;15.80;6.23;;;;;1.50;96552.00;;;;8383618;28;20241;-76
2022/03/04 18:33:25;;;;;;;12.67;6.20;;;;;1.40;96555.00;;;;8379704;28;20272;-74
2022/03/04 18:37:29;;;;;;;16.43;7.37;;;;;1.20;96555.00;;;;8379959;28;20312;-76
2022/03/04 18:41:32;;;;;;;12.33;6.23;;;;;1.20;96556.00;;;;8383618;28;20235;-75
2022/03/04 18:45:45;;;;;;;18.97;7.30;;;;;1.10;96555.00;;;;8377767;28;20243;-74
2022/03/04 18:49:48;;;;;;;27.50;11.73;;;;;1.10;96551.00;;;;8381288;28;20312;-73
2022/03/04 18:53:52;;;;;;;21.57;8.57;;;;;1.20;96562.00;;;;8375630;28;20228;-75
2022/03/04 18:57:55;;;;;;;17.17;7.50;;;;;1.30;96550.00;;;;8363027;28;20236;-76
2022/03/04 19:02:01;;;;;;;20.97;7.83;;;;;1.30;96555.00;;;;8365885;28;20672;-77
2022/03/04 19:06:05;;;;;;;20.93;10.60;;;;;1.30;96561.00;;;;8371229;28;20749;-76
2022/03/04 19:10:09;;;;;;;38.77;12.23;;;;;1.30;96560.00;;;;8368616;28;20649;-75
2022/03/04 19:14:14;;;;;;;16.23;8.77;;;;;1.30;96557.00;;;;8377076;28;20255;-75
2022/03/04 19:18:19;;;;;;;17.70;8.93;;;;;1.30;96560.00;;;;8375759;28;20916;-76
2022/03/04 19:22:22;;;;;;;18.97;8.07;;;;;1.30;96566.00;;;;8384406;28;20668;-76
2022/03/04 19:26:25;;;;;;;20.20;9.80;;;;;1.30;96566.00;;;;8376580;28;20227;-72
2022/03/04 19:30:30;;;;;;;20.83;9.57;;;;;1.20;96571.00;;;;8375475;28;20265;-74
2022/03/04 19:34:35;;;;;;;25.50;10.50;;;;;1.20;96577.00;;;;8375193;28;20852;-76
2022/03/04 19:38:39;;;;;;;20.10;9.93;;;;;1.10;96578.00;;;;8381639;28;20217;-74
2022/03/04 19:42:42;;;;;;;19.73;9.20;;;;;1.10;96577.00;;;;8379697;28;20289;-78
2022/03/04 19:46:45;;;;;;;22.33;10.93;;;;;1.10;96577.00;;;;8380505;28;20228;-75
2022/03/04 19:50:50;;;;;;;22.70;10.43;;;;;1.00;96583.00;;;;8382374;28;20308;-74
2022/03/04 19:54:53;;;;;;;26.07;10.70;;;;;1.00;96577.00;;;;8373811;28;20229;-75
2022/03/04 19:58:56;;;;;;;25.63;10.30;;;;;1.00;96582.00;;;;8383050;28;20297;-73
2022/03/04 20:03:04;;;;;;;20.77;9.90;;;;;1.00;96586.00;;;;8378705;28;20328;-73
2022/03/04 20:07:12;;;;;;;28.10;12.17;;;;;0.90;96587.00;;;;8380299;28;20722;-75
2022/03/04 20:11:15;;;;;;;25.43;10.57;;;;;0.90;96597.00;;;;8383429;28;20227;-76
2022/03/04 20:15:18;;;;;;;22.67;10.40;;;;;0.90;96590.00;;;;8381792;28;20232;-76
2022/03/04 20:19:22;;;;;;;23.97;10.23;;;;;0.80;96580.00;;;;8377720;28;20236;-75
2022/03/04 20:23:26;;;;;;;25.63;11.57;;;;;0.70;96590.00;;;;8386347;28;20240;-72
2022/03/04 20:27:29;;;;;;;26.20;12.63;;;;;0.70;96597.00;;;;8377744;28;20293;-73
2022/03/04 20:31:33;;;;;;;26.80;11.83;;;;;0.70;96588.00;;;;8380747;28;20224;-72
2022/03/04 20:35:36;;;;;;;25.50;11.83;;;;;0.60;96598.00;;;;8386808;28;20264;-75